Time;durP1;ratioP1;P1;durP2;ratioP2;P2;SDS_P1;SDS_P2;PMS_P1;PMS_P2;Temp;Humidity;BMP_temperature;BMP_pressure;BME280_temperature;BME280_humidity;BME280_pressure;Samples;Min_cycle;Max_cycle;Signal;HPM_P1;HPM_P2
2022/01/14 00:01:23;;;;;;;24.07;7.30;;;6.50;91.60;;;;;;5056013;28;20221;-87
2022/01/14 00:03:49;;;;;;;16.77;7.07;;;6.50;91.70;;;;;;5055992;28;20225;-87
2022/01/14 00:06:14;;;;;;;28.80;7.03;;;6.50;91.70;;;;;;5073614;28;20221;-87
2022/01/14 00:08:40;;;;;;;19.10;5.73;;;6.50;91.70;;;;;;5073608;28;20182;-87
2022/01/14 00:11:14;;;;;;;19.77;7.10;;;6.50;91.80;;;;;;5073781;28;20171;-87
2022/01/14 00:16:09;;;;;;;22.87;7.60;;;6.50;91.90;;;;;;5074072;28;20233;-87
2022/01/14 00:18:34;;;;;;;18.73;6.17;;;6.50;92.00;;;;;;5055579;28;20335;-87
2022/01/14 00:21:01;;;;;;;21.90;6.63;;;6.50;92.00;;;;;;5074235;28;20171;-87
2022/01/14 00:23:31;;;;;;;22.47;7.13;;;6.50;92.00;;;;;;5073683;28;20178;-87
2022/01/14 00:34:10;;;;;;;22.60;6.10;;;6.40;92.30;;;;;;5074157;28;20172;-87
2022/01/14 00:36:35;;;;;;;26.97;7.70;;;6.40;92.30;;;;;;5055444;28;20220;-86
2022/01/14 00:39:01;;;;;;;28.70;6.30;;;6.40;92.30;;;;;;5055785;28;20202;-87
2022/01/14 00:41:27;;;;;;;20.57;5.53;;;6.40;92.30;;;;;;5073391;28;20249;-86
2022/01/14 00:44:00;;;;;;;25.67;6.10;;;6.50;92.30;;;;;;5055628;28;20543;-86
2022/01/14 00:46:26;;;;;;;23.83;6.80;;;6.40;92.30;;;;;;5055477;28;20226;-87
2022/01/14 00:48:51;;;;;;;20.57;5.90;;;6.40;92.20;;;;;;5073642;28;20175;-87
2022/01/14 00:51:17;;;;;;;33.33;7.23;;;6.40;92.20;;;;;;5074231;28;20184;-85
2022/01/14 00:53:43;;;;;;;22.47;6.40;;;6.50;92.30;;;;;;5056105;28;20183;-86
2022/01/14 01:01:34;;;;;;;28.43;6.37;;;6.40;92.30;;;;;;5075398;28;20227;-87
2022/01/14 01:03:59;;;;;;;27.47;6.83;;;6.40;92.40;;;;;;5076920;28;20171;-86
2022/01/14 01:06:25;;;;;;;17.37;6.47;;;6.40;92.40;;;;;;5059305;28;20255;-84
2022/01/14 01:08:52;;;;;;;13.17;4.67;;;6.40;92.50;;;;;;5077349;28;20250;-86
2022/01/14 01:11:24;;;;;;;14.83;5.10;;;6.40;92.50;;;;;;5058979;28;20182;-88
2022/01/14 01:14:00;;;;;;;17.80;5.80;;;6.40;92.50;;;;;;5076927;28;20255;-86
2022/01/14 01:16:27;;;;;;;22.47;6.03;;;6.40;92.50;;;;;;5076686;28;20581;-87
2022/01/14 01:18:52;;;;;;;18.50;5.40;;;6.40;92.50;;;;;;5058936;28;20259;-87
2022/01/14 01:21:18;;;;;;;14.20;6.00;;;6.40;92.40;;;;;;5076694;28;20180;-86
2022/01/14 01:23:44;;;;;;;19.93;5.93;;;6.40;92.30;;;;;;5058661;28;20568;-87
2022/01/14 01:26:15;;;;;;;30.43;7.43;;;6.40;92.30;;;;;;5076578;28;20194;-87
2022/01/14 01:28:57;;;;;;;17.33;6.83;;;6.40;92.30;;;;;;5076871;28;20167;-86
2022/01/14 01:31:37;;;;;;;23.60;6.60;;;6.40;92.30;;;;;;5058794;28;20681;-85
2022/01/14 01:34:15;;;;;;;22.47;6.93;;;6.40;92.30;;;;;;5076692;28;20174;-84
2022/01/14 01:36:43;;;;;;;23.27;6.50;;;6.40;92.30;;;;;;5076195;28;20558;-87
2022/01/14 01:39:11;;;;;;;15.40;5.80;;;6.40;92.30;;;;;;5076324;28;20665;-86
2022/01/14 01:41:39;;;;;;;22.40;6.43;;;6.40;92.30;;;;;;5058344;28;20174;-86
2022/01/14 01:44:07;;;;;;;14.40;5.30;;;6.40;92.40;;;;;;5076110;28;20238;-88
2022/01/14 01:46:34;;;;;;;27.53;6.40;;;6.40;92.30;;;;;;5058238;28;20670;-87
2022/01/14 01:49:00;;;;;;;20.40;7.20;;;6.40;92.30;;;;;;5058241;28;20641;-87
2022/01/14 01:51:26;;;;;;;23.63;6.80;;;6.40;92.40;;;;;;5058394;28;20222;-87
2022/01/14 01:53:51;;;;;;;20.97;6.07;;;6.40;92.40;;;;;;5076106;28;20199;-87
2022/01/14 01:56:18;;;;;;;18.40;5.90;;;6.50;92.40;;;;;;5058012;28;20256;-87
2022/01/14 01:58:44;;;;;;;21.07;6.93;;;6.50;92.30;;;;;;5058537;28;20293;-88
2022/01/14 02:01:09;;;;;;;24.97;6.60;;;6.40;92.30;;;;;;5058353;28;20194;-88
2022/01/14 02:03:37;;;;;;;20.10;6.07;;;6.40;92.40;;;;;;5058432;28;20176;-88
2022/01/14 02:06:03;;;;;;;25.70;6.60;;;6.40;92.40;;;;;;5057979;28;20180;-88
2022/01/14 02:08:28;;;;;;;25.23;6.90;;;6.50;92.40;;;;;;5075863;28;20171;-87
2022/01/14 02:10:54;;;;;;;17.50;5.87;;;6.50;92.50;;;;;;5057768;28;20179;-87
2022/01/14 02:13:20;;;;;;;16.27;6.20;;;6.50;92.50;;;;;;5058071;28;20254;-87
2022/01/14 02:23:45;;;;;;;21.70;6.03;;;6.40;92.50;;;;;;5075776;28;20170;-86
2022/01/14 02:26:11;;;;;;;21.87;6.27;;;6.50;92.50;;;;;;5057470;28;20232;-88
2022/01/14 02:28:38;;;;;;;16.23;5.37;;;6.40;92.40;;;;;;5057402;28;20179;-88
2022/01/14 02:31:03;;;;;;;13.03;4.33;;;6.50;92.30;;;;;;5057537;28;20182;-88
2022/01/14 02:33:30;;;;;;;20.93;5.17;;;6.50;92.20;;;;;;5057439;28;20313;-88
2022/01/14 02:35:55;;;;;;;20.13;5.90;;;6.50;92.10;;;;;;5057252;28;20181;-88
2022/01/14 02:38:21;;;;;;;25.57;6.53;;;6.50;92.10;;;;;;5075027;28;20186;-88
2022/01/14 02:40:48;;;;;;;24.73;5.70;;;6.50;92.10;;;;;;5057185;28;20265;-88
2022/01/14 02:43:16;;;;;;;20.27;6.10;;;6.50;92.20;;;;;;5057246;28;20631;-87
2022/01/14 02:45:47;;;;;;;19.07;5.97;;;6.50;92.30;;;;;;5074998;28;20179;-87
2022/01/14 02:48:12;;;;;;;24.67;6.60;;;6.50;92.30;;;;;;5075034;28;20158;-88
2022/01/14 02:50:43;;;;;;;19.23;5.70;;;6.50;92.30;;;;;;5056973;28;20183;-89
2022/01/14 02:53:31;;;;;;;24.27;5.50;;;6.50;92.30;;;;;;5057047;28;20266;-88
2022/01/14 02:55:59;;;;;;;26.13;6.10;;;6.50;92.30;;;;;;5074890;28;20621;-88
2022/01/14 02:58:27;;;;;;;19.20;6.23;;;6.50;92.30;;;;;;5074674;28;20537;-88
2022/01/14 03:00:53;;;;;;;23.63;6.20;;;6.50;92.30;;;;;;5056716;28;20178;-88
2022/01/14 03:03:23;;;;;;;21.07;6.43;;;6.50;92.30;;;;;;5056824;28;20265;-88
2022/01/14 03:05:51;;;;;;;20.57;6.30;;;6.50;92.30;;;;;;5074444;28;20261;-88
2022/01/14 03:08:19;;;;;;;23.47;6.03;;;6.50;92.30;;;;;;5056649;28;20269;-88
2022/01/14 03:10:52;;;;;;;15.97;5.30;;;6.50;92.30;;;;;;5056584;28;20233;-87
2022/01/14 03:13:18;;;;;;;13.03;5.33;;;6.50;92.30;;;;;;5056920;28;20178;-87
2022/01/14 03:15:44;;;;;;;22.60;6.23;;;6.50;92.20;;;;;;5056318;28;20236;-87
2022/01/14 03:18:10;;;;;;;22.67;6.77;;;6.50;92.10;;;;;;5074473;28;20183;-87
2022/01/14 03:23:08;;;;;;;32.53;7.73;;;6.50;92.20;;;;;;5074578;28;20152;-88
2022/01/14 03:25:52;;;;;;;18.13;6.53;;;6.50;92.20;;;;;;5056034;28;20186;-87
2022/01/14 03:28:23;;;;;;;20.57;5.87;;;6.50;92.20;;;;;;5074665;28;20156;-87
2022/01/14 03:30:52;;;;;;;21.13;6.17;;;6.50;92.20;;;;;;5056535;28;20164;-88
2022/01/14 03:33:19;;;;;;;20.07;6.87;;;6.50;92.20;;;;;;5074282;28;20630;-87
2022/01/14 03:35:45;;;;;;;33.27;8.43;;;6.50;92.10;;;;;;5056099;28;20277;-87
2022/01/14 03:38:11;;;;;;;16.73;5.83;;;6.50;92.00;;;;;;5074021;28;20217;-88
2022/01/14 03:40:37;;;;;;;16.23;5.33;;;6.50;92.00;;;;;;5073817;28;20619;-88
2022/01/14 03:43:03;;;;;;;24.97;6.33;;;6.50;92.00;;;;;;5073886;28;20178;-87
2022/01/14 03:45:28;;;;;;;16.00;5.23;;;6.50;91.80;;;;;;5056786;28;20190;-88
2022/01/14 03:47:54;;;;;;;15.20;5.43;;;6.50;91.70;;;;;;5073930;28;20199;-89
2022/01/14 03:50:20;;;;;;;25.80;7.07;;;6.50;91.60;;;;;;5055926;28;20624;-88
2022/01/14 03:52:45;;;;;;;18.57;6.00;;;6.50;91.50;;;;;;5055915;28;20651;-88
2022/01/14 03:55:11;;;;;;;21.73;5.97;;;6.50;91.60;;;;;;5073862;28;20182;-86
2022/01/14 03:57:37;;;;;;;22.10;6.10;;;6.50;91.60;;;;;;5073605;28;20241;-88
2022/01/14 04:00:04;;;;;;;15.70;5.97;;;6.50;91.40;;;;;;5055692;28;20202;-88
2022/01/14 04:02:29;;;;;;;21.23;6.10;;;6.50;91.40;;;;;;5055748;28;20321;-88
2022/01/14 04:04:55;;;;;;;15.30;5.90;;;6.50;91.40;;;;;;5073532;28;20219;-88
2022/01/14 04:07:20;;;;;;;29.83;6.27;;;6.50;91.50;;;;;;5073552;28;20199;-89
2022/01/14 04:09:46;;;;;;;22.33;6.63;;;6.50;91.40;;;;;;5055931;28;20179;-88
2022/01/14 04:12:18;;;;;;;26.37;6.40;;;6.50;91.40;;;;;;5055490;28;20248;-87
2022/01/14 04:17:12;;;;;;;27.27;7.00;;;6.50;91.20;;;;;;5073372;28;20250;-87
2022/01/14 04:19:38;;;;;;;21.83;6.70;;;6.50;91.10;;;;;;5073358;28;20254;-87
2022/01/14 04:22:04;;;;;;;20.03;5.83;;;6.50;91.10;;;;;;5055425;28;20175;-88
2022/01/14 04:24:29;;;;;;;22.97;6.43;;;6.50;91.10;;;;;;5055493;28;20186;-87
2022/01/14 04:26:55;;;;;;;17.90;5.77;;;6.50;91.00;;;;;;5055348;28;20201;-87
2022/01/14 04:29:21;;;;;;;17.63;6.07;;;6.50;91.10;;;;;;5055386;28;20183;-87
2022/01/14 04:31:47;;;;;;;13.90;4.50;;;6.50;90.80;;;;;;5073246;28;20638;-87
2022/01/14 04:34:15;;;;;;;18.27;5.50;;;6.50;90.70;;;;;;5055360;28;20179;-88
2022/01/14 04:36:42;;;;;;;23.90;5.50;;;6.60;90.60;;;;;;5057534;28;20210;-88
2022/01/14 04:39:08;;;;;;;24.80;6.57;;;6.50;90.70;;;;;;5059411;28;20207;-87
2022/01/14 04:41:34;;;;;;;15.13;4.87;;;6.50;90.70;;;;;;5077294;28;20175;-87
2022/01/14 04:44:01;;;;;;;24.77;6.27;;;6.60;90.40;;;;;;5077352;28;20236;-89
2022/01/14 04:48:52;;;;;;;16.37;4.27;;;6.50;90.40;;;;;;5077426;28;20206;-87
2022/01/14 04:51:20;;;;;;;24.53;5.57;;;6.50;90.50;;;;;;5077296;28;20662;-87
2022/01/14 04:53:45;;;;;;;11.70;4.80;;;6.50;90.40;;;;;;5059133;28;20186;-87
2022/01/14 04:56:11;;;;;;;19.70;5.03;;;6.50;90.40;;;;;;5059157;28;20702;-88
2022/01/14 04:58:37;;;;;;;23.77;4.73;;;6.50;90.30;;;;;;5059006;28;20345;-87
2022/01/14 05:01:02;;;;;;;14.87;3.77;;;6.50;90.30;;;;;;5076925;28;20175;-88
2022/01/14 05:03:30;;;;;;;16.43;4.40;;;6.50;90.30;;;;;;5058898;28;20171;-87
2022/01/14 05:05:58;;;;;;;26.07;5.53;;;6.50;90.40;;;;;;5058897;28;20667;-87
2022/01/14 05:08:27;;;;;;;14.47;4.43;;;6.40;90.60;;;;;;5058885;28;20183;-87
2022/01/14 05:13:26;;;;;;;23.50;5.63;;;6.50;90.40;;;;;;5077258;28;20667;-87
2022/01/14 05:15:52;;;;;;;27.13;4.50;;;6.50;90.20;;;;;;5076921;28;20535;-87
2022/01/14 05:18:18;;;;;;;18.37;4.37;;;6.50;90.40;;;;;;5059102;28;20269;-87
2022/01/14 05:20:43;;;;;;;21.23;4.13;;;6.50;90.40;;;;;;5058706;28;20300;-87
2022/01/14 05:23:09;;;;;;;19.70;5.77;;;6.50;90.40;;;;;;5058877;28;20273;-88
2022/01/14 05:25:34;;;;;;;20.87;5.27;;;6.50;90.50;;;;;;5076759;28;20210;-87
2022/01/14 05:28:00;;;;;;;9.93;3.33;;;6.50;90.50;;;;;;5058414;28;20202;-87
2022/01/14 05:30:26;;;;;;;16.23;3.53;;;6.50;90.60;;;;;;5058657;28;20206;-87
2022/01/14 05:32:53;;;;;;;19.17;4.30;;;6.50;90.60;;;;;;5058650;28;20197;-88
2022/01/14 05:35:22;;;;;;;16.53;4.07;;;6.50;90.50;;;;;;5076437;28;20175;-88
2022/01/14 05:37:48;;;;;;;19.43;4.43;;;6.40;90.60;;;;;;5058430;28;20293;-88
2022/01/14 05:40:15;;;;;;;18.77;4.47;;;6.50;90.70;;;;;;5058457;28;20631;-88
2022/01/14 05:42:41;;;;;;;19.87;3.70;;;6.50;90.70;;;;;;5058281;28;20207;-88
2022/01/14 05:45:09;;;;;;;17.63;4.93;;;6.50;90.70;;;;;;5076183;28;20272;-88
2022/01/14 05:47:35;;;;;;;16.30;3.80;;;6.50;90.80;;;;;;5057497;28;20195;-88
2022/01/14 05:50:02;;;;;;;26.40;5.80;;;6.50;90.80;;;;;;5058213;28;20627;-89
2022/01/14 05:52:28;;;;;;;29.53;5.50;;;6.50;90.80;;;;;;5076133;28;20185;-88
2022/01/14 05:54:53;;;;;;;16.93;4.70;;;6.40;90.90;;;;;;5076525;28;20210;-88
2022/01/14 05:57:20;;;;;;;11.17;2.90;;;6.40;91.00;;;;;;5058088;28;20749;-87
2022/01/14 05:59:46;;;;;;;22.80;4.43;;;6.40;91.00;;;;;;5057955;28;20210;-87
2022/01/14 06:02:12;;;;;;;20.70;5.50;;;6.40;90.90;;;;;;5057954;28;20208;-89
2022/01/14 06:04:38;;;;;;;27.07;4.67;;;6.40;91.00;;;;;;5058033;28;20710;-87
2022/01/14 06:07:04;;;;;;;18.87;4.03;;;6.40;91.10;;;;;;5057999;28;20196;-87
2022/01/14 06:09:29;;;;;;;27.37;5.10;;;6.30;91.20;;;;;;5057693;28;20190;-88
2022/01/14 06:11:55;;;;;;;17.70;4.20;;;6.40;91.10;;;;;;5075611;28;20193;-88
2022/01/14 06:14:21;;;;;;;18.27;5.10;;;6.30;91.20;;;;;;5057720;28;20179;-87
2022/01/14 06:16:47;;;;;;;23.73;5.17;;;6.30;91.30;;;;;;5075626;28;20223;-88
2022/01/14 06:19:12;;;;;;;19.73;4.80;;;6.30;91.30;;;;;;5075429;28;20247;-88
2022/01/14 06:21:38;;;;;;;21.87;4.87;;;6.30;91.40;;;;;;5057687;28;20171;-87
2022/01/14 06:24:04;;;;;;;15.30;5.17;;;6.30;91.30;;;;;;5057628;28;20722;-87
2022/01/14 06:26:30;;;;;;;22.00;5.60;;;6.30;91.40;;;;;;5075253;28;20203;-87
2022/01/14 06:28:56;;;;;;;22.37;5.37;;;6.30;91.40;;;;;;5057294;28;20183;-87
2022/01/14 06:31:21;;;;;;;29.27;5.83;;;6.30;91.40;;;;;;5075225;28;20262;-88
2022/01/14 06:33:47;;;;;;;20.60;6.23;;;6.30;91.40;;;;;;5075671;28;20198;-88
2022/01/14 06:36:13;;;;;;;33.53;5.27;;;6.30;91.30;;;;;;5075778;28;20194;-89
2022/01/14 06:38:39;;;;;;;28.67;5.20;;;6.30;91.20;;;;;;5075789;28;20605;-90
2022/01/14 06:41:05;;;;;;;25.57;4.87;;;6.30;91.30;;;;;;5075574;28;20183;-90
2022/01/14 06:43:30;;;;;;;23.80;4.50;;;6.30;91.30;;;;;;5057695;28;20172;-91
2022/01/14 06:45:56;;;;;;;25.33;5.17;;;6.30;91.30;;;;;;5075563;28;20178;-90
2022/01/14 06:48:22;;;;;;;28.37;5.13;;;6.30;91.40;;;;;;5057512;28;20670;-89
2022/01/14 06:50:47;;;;;;;23.83;5.67;;;6.30;91.40;;;;;;5057350;28;20179;-89
2022/01/14 06:53:14;;;;;;;17.93;3.93;;;6.30;91.40;;;;;;5057702;28;20189;-90
2022/01/14 06:55:39;;;;;;;24.93;4.87;;;6.30;91.50;;;;;;5057635;28;20194;-90
2022/01/14 06:58:05;;;;;;;15.90;4.50;;;6.30;91.60;;;;;;5056939;28;20675;-90
2022/01/14 07:00:32;;;;;;;26.33;5.20;;;6.30;91.50;;;;;;5057042;28;20206;-90
2022/01/14 07:02:57;;;;;;;17.70;5.03;;;6.30;91.40;;;;;;5057501;28;20187;-90
2022/01/14 07:05:23;;;;;;;18.13;4.50;;;6.30;91.40;;;;;;5056950;28;20175;-90
2022/01/14 07:07:49;;;;;;;21.70;4.90;;;6.30;91.50;;;;;;5057028;28;20266;-90
2022/01/14 07:10:14;;;;;;;30.30;5.87;;;6.30;91.30;;;;;;5057928;28;20209;-90
2022/01/14 07:12:42;;;;;;;23.00;4.70;;;6.30;91.30;;;;;;5056937;28;20172;-91
2022/01/14 07:15:16;;;;;;;33.37;5.93;;;6.30;91.40;;;;;;5074821;28;20598;-90
2022/01/14 07:17:43;;;;;;;28.93;5.20;;;6.30;91.40;;;;;;5074672;28;20202;-89
2022/01/14 07:20:13;;;;;;;22.37;5.40;;;6.30;91.40;;;;;;5056685;28;20198;-88
2022/01/14 07:22:40;;;;;;;25.57;4.40;;;6.30;91.40;;;;;;5056958;28;20175;-91
2022/01/14 07:25:07;;;;;;;17.47;4.10;;;6.30;91.40;;;;;;5056645;28;20174;-90
2022/01/14 07:27:32;;;;;;;26.97;5.40;;;6.30;91.60;;;;;;5056771;28;20251;-90
2022/01/14 07:29:59;;;;;;;18.47;5.17;;;6.30;91.50;;;;;;5074522;28;20175;-89
2022/01/14 07:32:25;;;;;;;27.80;5.20;;;6.30;91.60;;;;;;5056546;28;20175;-90
2022/01/14 07:34:50;;;;;;;30.83;5.90;;;6.30;91.60;;;;;;5056322;28;20185;-91
2022/01/14 07:37:18;;;;;;;24.33;5.60;;;6.30;91.60;;;;;;5056376;28;20243;-90
2022/01/14 07:39:43;;;;;;;27.43;5.40;;;6.30;91.70;;;;;;5056318;28;20198;-91
2022/01/14 07:42:09;;;;;;;18.00;4.63;;;6.30;91.70;;;;;;5056799;28;20256;-90
2022/01/14 07:44:35;;;;;;;28.20;6.07;;;6.30;91.80;;;;;;5056264;28;20179;-90
2022/01/14 07:47:00;;;;;;;34.20;5.87;;;6.30;91.80;;;;;;5056568;28;20663;-90
2022/01/14 07:49:26;;;;;;;23.37;5.37;;;6.30;91.80;;;;;;5056868;28;20200;-89
2022/01/14 07:51:52;;;;;;;24.07;5.93;;;6.30;91.90;;;;;;5056185;28;20201;-90
2022/01/14 07:54:18;;;;;;;26.93;5.60;;;6.30;91.90;;;;;;5056169;28;20217;-90
2022/01/14 07:56:47;;;;;;;24.53;5.80;;;6.30;91.90;;;;;;5056065;28;20301;-89
2022/01/14 07:59:18;;;;;;;22.80;5.03;;;6.30;91.90;;;;;;5074017;28;20763;-91
2022/01/14 08:01:46;;;;;;;26.70;5.30;;;6.30;92.00;;;;;;5056159;28;20174;-91
2022/01/14 08:04:13;;;;;;;29.60;6.20;;;6.30;92.00;;;;;;5056180;28;20174;-90
2022/01/14 08:06:45;;;;;;;29.53;5.43;;;6.40;92.00;;;;;;5056176;28;20213;-90
2022/01/14 08:09:11;;;;;;;29.17;5.27;;;6.30;92.10;;;;;;5056670;28;20178;-88
2022/01/14 08:11:37;;;;;;;17.53;4.57;;;6.30;92.00;;;;;;5055864;28;20178;-89
2022/01/14 08:14:02;;;;;;;31.70;5.63;;;6.30;92.10;;;;;;5055983;28;20640;-90
2022/01/14 08:16:28;;;;;;;26.10;5.80;;;6.30;92.10;;;;;;5055817;28;20214;-90
2022/01/14 08:18:54;;;;;;;29.67;5.43;;;6.40;92.10;;;;;;5073906;28;20213;-90
2022/01/14 08:21:19;;;;;;;29.10;6.40;;;6.30;92.20;;;;;;5055838;28;20544;-90
2022/01/14 08:23:45;;;;;;;38.07;7.17;;;6.40;92.20;;;;;;5055980;28;20175;-90
2022/01/14 08:26:11;;;;;;;30.73;6.27;;;6.30;92.30;;;;;;5056076;28;20281;-91
2022/01/14 08:28:37;;;;;;;29.10;5.43;;;6.40;92.30;;;;;;5056149;28;20664;-90
2022/01/14 08:31:03;;;;;;;21.63;5.43;;;6.30;92.30;;;;;;5073792;28;20631;-90
2022/01/14 08:33:29;;;;;;;32.90;6.30;;;6.40;92.30;;;;;;5055820;28;20209;-89
2022/01/14 08:35:54;;;;;;;26.30;5.87;;;6.40;92.30;;;;;;5055638;28;20206;-89
2022/01/14 08:38:21;;;;;;;30.13;6.10;;;6.30;92.30;;;;;;5055885;28;20174;-88
2022/01/14 08:40:47;;;;;;;27.77;5.43;;;6.40;92.30;;;;;;5073564;28;20198;-90
2022/01/14 08:43:12;;;;;;;23.10;5.80;;;6.40;92.30;;;;;;5055917;28;20242;-91
2022/01/14 08:45:38;;;;;;;32.03;6.03;;;6.40;92.30;;;;;;5073584;28;20651;-90
2022/01/14 08:48:05;;;;;;;28.50;5.67;;;6.40;92.30;;;;;;5055826;28;20191;-90
2022/01/14 08:50:36;;;;;;;27.17;5.20;;;6.40;92.30;;;;;;5055921;28;20646;-89
2022/01/14 08:53:04;;;;;;;17.67;5.17;;;6.40;92.30;;;;;;5055535;28;20225;-89
2022/01/14 08:55:30;;;;;;;24.87;5.03;;;6.40;92.40;;;;;;5073347;28;20329;-90
2022/01/14 08:57:56;;;;;;;26.07;5.70;;;6.40;92.40;;;;;;5055502;28;20674;-89
2022/01/14 09:00:24;;;;;;;23.00;5.23;;;6.50;92.40;;;;;;5055413;28;20285;-90
2022/01/14 09:02:51;;;;;;;33.27;5.60;;;6.50;92.40;;;;;;5055646;28;20229;-90
2022/01/14 09:05:17;;;;;;;29.60;6.17;;;6.50;92.50;;;;;;5055578;28;20171;-90
2022/01/14 09:07:42;;;;;;;26.43;5.70;;;6.50;92.50;;;;;;5056365;28;20252;-90
2022/01/14 09:10:09;;;;;;;21.97;4.63;;;6.50;92.50;;;;;;5073634;28;20535;-90
2022/01/14 09:12:35;;;;;;;26.03;5.73;;;6.50;92.60;;;;;;5073734;28;20257;-89
2022/01/14 09:15:03;;;;;;;25.47;5.77;;;6.50;92.60;;;;;;5074147;28;20232;-92
2022/01/14 09:17:29;;;;;;;28.33;7.73;;;6.60;92.60;;;;;;5055519;28;20579;-92
2022/01/14 09:19:55;;;;;;;24.07;5.83;;;6.50;92.70;;;;;;5055478;28;20263;-91
2022/01/14 09:22:22;;;;;;;31.17;5.83;;;6.50;92.70;;;;;;5057131;28;20209;-91
2022/01/14 09:24:48;;;;;;;23.90;5.93;;;6.50;92.90;;;;;;5059255;28;20170;-91
2022/01/14 09:27:15;;;;;;;24.07;6.33;;;6.50;92.90;;;;;;5059296;28;20204;-92
2022/01/14 09:29:42;;;;;;;28.03;7.20;;;6.50;93.10;;;;;;5059067;28;20182;-92
2022/01/14 09:32:09;;;;;;;28.50;6.40;;;6.60;93.10;;;;;;5077124;28;20164;-91
2022/01/14 09:34:36;;;;;;;26.37;6.37;;;6.50;93.10;;;;;;5058914;28;20175;-91
2022/01/14 09:37:02;;;;;;;24.43;5.63;;;6.50;93.20;;;;;;5058929;28;20623;-91
2022/01/14 09:39:30;;;;;;;28.20;6.20;;;6.50;93.30;;;;;;5059518;28;20590;-91
2022/01/14 09:41:56;;;;;;;26.43;5.53;;;6.50;93.30;;;;;;5058719;28;20682;-91
2022/01/14 09:44:22;;;;;;;23.37;6.00;;;6.60;93.40;;;;;;5058658;28;20179;-92
2022/01/14 09:46:52;;;;;;;19.40;6.07;;;6.50;93.50;;;;;;5058984;28;20218;-91
2022/01/14 09:49:18;;;;;;;33.50;6.43;;;6.50;93.60;;;;;;5058673;28;20179;-90
2022/01/14 09:51:44;;;;;;;18.50;5.03;;;6.50;93.60;;;;;;5058754;28;20646;-90
2022/01/14 09:54:11;;;;;;;17.97;5.83;;;6.50;93.80;;;;;;5076369;28;20175;-90
2022/01/14 09:56:37;;;;;;;28.73;6.13;;;6.50;94.10;;;;;;5058543;28;20202;-90
2022/01/14 09:59:04;;;;;;;22.33;6.13;;;6.50;94.10;;;;;;5076254;28;20195;-89
2022/01/14 10:01:38;;;;;;;24.47;6.23;;;6.50;94.10;;;;;;5076415;28;20171;-91
2022/01/14 10:04:04;;;;;;;25.20;6.60;;;6.50;94.20;;;;;;5058336;28;20167;-91
2022/01/14 10:06:45;;;;;;;34.07;6.77;;;6.50;94.30;;;;;;5058317;28;20197;-90
2022/01/14 10:09:33;;;;;;;27.10;7.00;;;6.50;94.40;;;;;;5059201;28;20178;-89
2022/01/14 10:12:01;;;;;;;23.67;5.53;;;6.50;94.40;;;;;;5076524;28;20156;-90
2022/01/14 10:14:27;;;;;;;20.67;5.50;;;6.50;94.60;;;;;;5058266;28;20201;-90
2022/01/14 10:16:55;;;;;;;21.83;5.13;;;6.50;94.70;;;;;;5076476;28;20207;-91
2022/01/14 10:19:26;;;;;;;26.63;5.60;;;6.50;94.80;;;;;;5075771;28;20199;-90
2022/01/14 10:21:53;;;;;;;33.80;5.83;;;6.50;94.90;;;;;;5058713;28;20175;-91
2022/01/14 10:24:19;;;;;;;21.17;4.83;;;6.50;95.00;;;;;;5058054;28;20168;-91
2022/01/14 10:26:58;;;;;;;15.30;5.40;;;6.50;95.10;;;;;;5058217;28;20202;-90
2022/01/14 10:29:29;;;;;;;18.33;5.17;;;6.50;95.20;;;;;;5058238;28;20258;-90
2022/01/14 10:31:55;;;;;;;23.27;5.97;;;6.50;95.30;;;;;;5057942;28;20247;-90
2022/01/14 10:34:21;;;;;;;28.30;6.60;;;6.60;95.40;;;;;;5058327;28;20175;-90
2022/01/14 10:36:50;;;;;;;24.23;5.13;;;6.60;95.50;;;;;;5058352;28;20285;-89
2022/01/14 10:39:27;;;;;;;20.10;4.57;;;6.60;95.50;;;;;;5058105;28;20199;-89
2022/01/14 10:41:55;;;;;;;17.07;5.20;;;6.60;95.50;;;;;;5058054;28;20167;-89
2022/01/14 10:44:38;;;;;;;16.10;5.07;;;6.60;95.60;;;;;;5058229;28;20265;-89
2022/01/14 10:47:22;;;;;;;21.17;5.07;;;6.60;95.60;;;;;;5058133;28;20205;-91
2022/01/14 10:49:54;;;;;;;14.63;5.97;;;6.70;95.60;;;;;;5057382;28;20194;-90
2022/01/14 10:52:23;;;;;;;22.90;4.60;;;6.60;95.60;;;;;;5058785;28;20167;-91
2022/01/14 10:54:54;;;;;;;11.43;3.80;;;6.70;95.60;;;;;;5057465;28;20525;-90
2022/01/14 10:57:24;;;;;;;20.23;5.40;;;6.70;95.70;;;;;;5057524;28;20199;-89
2022/01/14 10:59:52;;;;;;;16.73;4.80;;;6.70;95.70;;;;;;5057587;28;20191;-89
2022/01/14 11:02:39;;;;;;;15.87;4.53;;;6.70;95.70;;;;;;5057549;28;20175;-89
2022/01/14 11:05:11;;;;;;;19.77;4.77;;;6.70;95.70;;;;;;5057820;28;20342;-90
2022/01/14 11:07:38;;;;;;;20.43;4.47;;;6.70;95.70;;;;;;5057095;28;20187;-89
2022/01/14 11:10:13;;;;;;;15.57;4.40;;;6.80;95.70;;;;;;5058658;28;20174;-91
2022/01/14 11:12:40;;;;;;;20.80;5.90;;;6.80;95.70;;;;;;5061886;28;20182;-92
2022/01/14 11:15:08;;;;;;;20.70;4.37;;;6.80;95.70;;;;;;5061225;28;20175;-92
2022/01/14 11:17:36;;;;;;;11.90;4.07;;;6.80;95.70;;;;;;5061808;28;20299;-92
2022/01/14 11:20:04;;;;;;;17.63;4.03;;;6.90;95.70;;;;;;5062495;28;20195;-94
2022/01/14 11:25:14;;;;;;;10.27;4.63;;;6.90;95.80;;;;;;5079517;28;20181;-93
2022/01/14 11:27:46;;;;;;;13.70;4.17;;;7.00;95.80;;;;;;5061651;28;20228;-92
2022/01/14 11:30:15;;;;;;;11.80;4.27;;;7.00;95.80;;;;;;5061909;28;20175;-92
2022/01/14 11:32:59;;;;;;;10.03;4.40;;;7.00;95.80;;;;;;5061666;28;20179;-92
2022/01/14 11:35:26;;;;;;;17.50;3.97;;;7.00;95.70;;;;;;5061833;28;20592;-92
2022/01/14 11:37:52;;;;;;;16.93;4.30;;;7.00;95.70;;;;;;5061834;28;20256;-92
2022/01/14 11:40:19;;;;;;;7.13;2.80;;;7.10;95.80;;;;;;5060661;28;20191;-91
2022/01/14 11:42:47;;;;;;;12.43;4.10;;;7.00;95.70;;;;;;5058543;28;20175;-91
2022/01/14 11:45:17;;;;;;;10.33;3.77;;;7.10;95.70;;;;;;5057248;28;20195;-91
2022/01/14 11:47:44;;;;;;;9.53;3.53;;;7.10;95.70;;;;;;5056980;28;20219;-91
2022/01/14 11:50:19;;;;;;;7.73;3.90;;;7.10;95.70;;;;;;5057857;28;20243;-89
2022/01/14 11:52:46;;;;;;;10.80;3.37;;;7.10;95.70;;;;;;5059207;28;20183;-92
2022/01/14 11:55:21;;;;;;;12.27;4.20;;;7.10;95.70;;;;;;5061231;28;20262;-92
2022/01/14 11:57:52;;;;;;;10.67;3.70;;;7.10;95.70;;;;;;5060373;28;20205;-93
2022/01/14 12:00:27;;;;;;;9.53;3.40;;;7.20;95.80;;;;;;5059466;28;20345;-91
2022/01/14 12:02:55;;;;;;;9.03;3.07;;;7.20;95.70;;;;;;5058196;28;20202;-93
2022/01/14 12:05:25;;;;;;;8.47;3.53;;;7.20;95.70;;;;;;5059141;28;20193;-92
2022/01/14 12:08:03;;;;;;;10.13;4.37;;;7.20;95.80;;;;;;5063772;28;20587;-92
2022/01/14 12:10:35;;;;;;;8.90;3.97;;;7.30;95.70;;;;;;5061727;28;20182;-92
2022/01/14 12:18:56;;;;;;;7.23;3.30;;;7.40;95.70;;;;;;5080002;28;20155;-93
2022/01/14 12:21:38;;;;;;;11.60;4.20;;;7.30;95.70;;;;;;5061921;28;20190;-92
2022/01/14 12:24:18;;;;;;;8.57;4.87;;;7.30;95.70;;;;;;5057517;28;20217;-92
2022/01/14 12:27:05;;;;;;;10.37;4.77;;;7.40;95.70;;;;;;5056376;28;20201;-92
2022/01/14 12:29:34;;;;;;;5.57;4.03;;;7.40;95.70;;;;;;5042019;28;20187;-92
2022/01/14 12:32:14;;;;;;;10.60;4.20;;;7.40;95.60;;;;;;5059557;28;20252;-92
2022/01/14 12:34:55;;;;;;;8.97;4.40;;;7.40;95.70;;;;;;5059983;28;20163;-92
2022/01/14 12:37:34;;;;;;;10.37;5.10;;;7.50;95.70;;;;;;5063366;28;20194;-92
2022/01/14 12:40:18;;;;;;;10.60;4.63;;;7.50;95.70;;;;;;5060123;28;20567;-91
2022/01/14 12:43:05;;;;;;;8.03;4.20;;;7.50;95.70;;;;;;5058361;28;20177;-91
2022/01/14 12:46:13;;;;;;;7.87;4.47;;;7.60;95.70;;;;;;5057641;28;20164;-92
2022/01/14 12:48:51;;;;;;;15.53;4.43;;;7.60;95.70;;;;;;5058967;28;20220;-92
2022/01/14 12:51:19;;;;;;;7.07;3.93;;;7.60;95.70;;;;;;5058636;28;20631;-92
2022/01/14 12:53:47;;;;;;;13.00;4.57;;;7.60;95.70;;;;;;5059242;28;20737;-92
2022/01/14 12:56:17;;;;;;;19.10;4.70;;;7.60;95.70;;;;;;5059191;28;20199;-92
2022/01/14 12:58:56;;;;;;;13.27;5.30;;;7.60;95.60;;;;;;5063198;28;20178;-91
2022/01/14 13:01:26;;;;;;;8.57;3.37;;;7.70;95.70;;;;;;5061159;28;20261;-90
2022/01/14 13:03:55;;;;;;;13.30;4.03;;;7.70;95.70;;;;;;5059780;28;20175;-92
2022/01/14 13:06:20;;;;;;;10.63;4.47;;;7.70;95.70;;;;;;5059433;28;20601;-91
2022/01/14 13:08:58;;;;;;;11.87;4.20;;;7.70;95.70;;;;;;5078703;28;20217;-92
2022/01/14 13:11:25;;;;;;;17.23;4.50;;;7.70;95.60;;;;;;5062663;28;20177;-92
2022/01/14 13:14:09;;;;;;;8.57;3.60;;;7.80;95.60;;;;;;5062233;28;20221;-92
2022/01/14 13:16:45;;;;;;;8.50;3.73;;;7.80;95.60;;;;;;5061001;28;20290;-92
2022/01/14 13:19:34;;;;;;;14.03;4.17;;;7.80;95.60;;;;;;5060558;28;20673;-92
2022/01/14 13:22:09;;;;;;;14.07;3.70;;;7.80;95.60;;;;;;5062208;28;20167;-92
2022/01/14 13:24:38;;;;;;;10.03;3.10;;;7.80;95.60;;;;;;5061280;28;20162;-92
2022/01/14 13:27:14;;;;;;;10.90;3.67;;;7.90;95.60;;;;;;5060960;28;20213;-92
2022/01/14 13:29:58;;;;;;;7.30;2.37;;;7.90;95.60;;;;;;5060682;28;20591;-92
2022/01/14 13:32:29;;;;;;;11.33;3.50;;;7.90;95.60;;;;;;5062349;28;20168;-92
2022/01/14 13:35:11;;;;;;;8.57;3.23;;;7.80;95.60;;;;;;5067512;28;20167;-92
2022/01/14 13:37:39;;;;;;;15.27;3.17;;;7.80;95.70;;;;;;5070875;28;20223;-92